createdAt,value
2019-03-01T00:02:03.226Z,5.58
2019-03-01T00:04:47.886Z,5.45
2019-03-01T00:10:45.006Z,4.33
2019-03-01T00:13:31.293Z,5.95
2019-03-01T00:16:36.917Z,5.10
2019-03-01T00:19:12.444Z,5.65
2019-03-01T00:21:59.978Z,5.22
2019-03-01T00:24:57.321Z,7.55
2019-03-01T00:27:49.395Z,7.33
2019-03-01T00:30:54.215Z,5.58
2019-03-01T00:33:31.174Z,4.65
2019-03-01T00:36:32.250Z,3.90
2019-03-01T00:39:36.937Z,3.37
2019-03-01T00:42:20.729Z,4.40
2019-03-01T00:44:53.814Z,5.20
2019-03-01T00:47:33.099Z,3.30
2019-03-01T00:50:04.682Z,3.80
2019-03-01T00:52:37.906Z,5.17
2019-03-01T00:55:08.908Z,6.85
2019-03-01T00:57:46.921Z,7.83
2019-03-01T01:00:19.837Z,5.45
2019-03-01T01:02:53.165Z,5.53
2019-03-01T01:05:33.537Z,6.28
2019-03-01T01:08:03.754Z,4.75
2019-03-01T01:10:38.153Z,4.90
2019-03-01T01:13:10.536Z,5.85
2019-03-01T01:15:40.784Z,5.78
2019-03-01T01:18:11.893Z,4.67
2019-03-01T01:20:45.512Z,5.03
2019-03-01T01:23:19.061Z,6.40
2019-03-01T01:25:55.354Z,4.90
2019-03-01T01:28:24.541Z,5.50
2019-03-01T01:30:58.104Z,4.70
2019-03-01T01:33:34.386Z,4.00
2019-03-01T01:36:09.915Z,4.60
2019-03-01T01:38:45.560Z,3.52
2019-03-01T01:41:17.742Z,4.10
2019-03-01T01:43:54.628Z,4.08
2019-03-01T01:46:34.567Z,4.10
2019-03-01T01:49:07.591Z,3.55
2019-03-01T01:51:42.518Z,3.98
2019-03-01T01:54:12.132Z,3.87
2019-03-01T01:56:42.992Z,3.25
2019-03-01T01:59:15.904Z,3.27
2019-03-01T02:01:48.576Z,4.45
2019-03-01T02:04:22.354Z,3.55
2019-03-01T02:06:56.545Z,3.40
2019-03-01T02:09:30.783Z,3.40
2019-03-01T02:12:01.271Z,3.95
2019-03-01T02:14:33.785Z,3.75
2019-03-01T02:17:04.598Z,3.70
2019-03-01T02:19:34.872Z,4.42
2019-03-01T02:22:14.810Z,3.45
2019-03-01T02:24:46.075Z,3.27
2019-03-01T02:27:29.147Z,4.45
2019-03-01T02:30:00.595Z,3.30
2019-03-01T02:32:37.627Z,3.90
2019-03-01T02:35:13.668Z,3.72
2019-03-01T02:37:55.983Z,4.00
2019-03-01T02:40:28.807Z,4.10
2019-03-01T02:43:01.379Z,4.90
2019-03-01T02:45:30.737Z,4.35
2019-03-01T02:48:07.779Z,3.80
2019-03-01T02:53:32.731Z,3.55
2019-03-01T02:59:02.372Z,4.20
2019-03-01T03:01:38.542Z,3.80
2019-03-01T03:04:14.526Z,4.10
2019-03-01T03:06:50.147Z,4.60
2019-03-01T03:09:22.497Z,4.37
2019-03-01T03:11:56.501Z,4.30
2019-03-01T03:14:30.465Z,4.40
2019-03-01T03:16:58.992Z,2.98
2019-03-01T03:19:29.032Z,3.75
2019-03-01T03:22:01.790Z,9.28
2019-03-01T03:24:44.592Z,3.42
2019-03-01T03:30:07.942Z,3.47
2019-03-01T03:32:41.821Z,3.10
2019-03-01T03:35:15.142Z,3.37
2019-03-01T03:37:55.681Z,3.83
2019-03-01T03:40:36.461Z,8.75
2019-03-01T03:43:12.630Z,17.55
2019-03-01T03:45:46.424Z,3.85
2019-03-01T03:48:16.749Z,7.65
2019-03-01T03:50:48.709Z,6.62
2019-03-01T03:53:21.684Z,4.15
2019-03-01T03:55:57.528Z,8.23
2019-03-01T03:58:32.502Z,7.83
2019-03-01T04:01:10.154Z,5.62
2019-03-01T04:03:42.939Z,3.72
2019-03-01T04:06:19.790Z,3.95
2019-03-01T04:08:50.489Z,4.20
2019-03-01T04:11:27.477Z,4.97
2019-03-01T04:13:56.805Z,5.10
2019-03-01T04:16:33.009Z,4.60
2019-03-01T04:19:05.138Z,5.22
2019-03-01T04:21:38.040Z,4.67
2019-03-01T04:24:14.673Z,5.65
2019-03-01T04:26:47.904Z,5.80
2019-03-01T04:29:19.270Z,5.05
2019-03-01T04:31:59.741Z,11.73
2019-03-01T04:34:30.295Z,13.60
2019-03-01T04:37:01.120Z,9.00
2019-03-01T04:39:38.382Z,5.50
2019-03-01T04:42:08.730Z,4.45
2019-03-01T04:44:40.634Z,4.40
2019-03-01T04:47:16.456Z,5.95
2019-03-01T04:49:47.887Z,4.60
2019-03-01T04:52:33.243Z,4.47
2019-03-01T04:55:07.243Z,5.00
2019-03-01T04:57:37.547Z,7.28
2019-03-01T05:00:16.211Z,5.22
2019-03-01T05:02:46.041Z,6.00
2019-03-01T05:05:22.267Z,5.30
2019-03-01T05:07:55.044Z,4.00
2019-03-01T05:10:28.238Z,4.40
2019-03-01T05:12:59.391Z,4.85
2019-03-01T05:15:32.530Z,7.80
2019-03-01T05:18:05.412Z,7.55
2019-03-01T05:20:39.701Z,5.33
2019-03-01T05:23:09.138Z,5.50
2019-03-01T05:25:44.123Z,6.20
2019-03-01T05:28:15.677Z,5.03
2019-03-01T05:30:47.918Z,4.50
2019-03-01T05:33:22.332Z,5.08
2019-03-01T05:35:55.094Z,4.22
2019-03-01T05:38:28.600Z,4.15
2019-03-01T05:40:59.454Z,4.33
2019-03-01T05:43:31.787Z,6.35
2019-03-01T05:46:04.487Z,4.50
2019-03-01T05:48:37.173Z,4.45
2019-03-01T05:51:09.400Z,4.80
2019-03-01T05:53:39.786Z,5.42
2019-03-01T05:56:15.489Z,4.55
2019-03-01T05:58:45.460Z,4.28
2019-03-01T06:01:33.380Z,4.62
2019-03-01T06:04:17.191Z,6.08
2019-03-01T06:06:58.762Z,5.62
2019-03-01T06:09:55.968Z,5.55
2019-03-01T06:12:48.016Z,5.92
2019-03-01T06:15:45.119Z,5.45
2019-03-01T06:18:21.966Z,5.20
2019-03-01T06:21:07.273Z,4.55
2019-03-01T06:24:07.799Z,4.40
2019-03-01T06:26:46.515Z,4.75
2019-03-01T06:29:41.642Z,4.30
2019-03-01T06:32:36.993Z,4.08
2019-03-01T06:35:13.777Z,3.90
2019-03-01T06:37:51.397Z,4.40
2019-03-01T06:40:45.193Z,5.08
2019-03-01T06:43:35.439Z,4.47
2019-03-01T06:46:31.556Z,5.35
2019-03-01T06:49:05.862Z,5.28
2019-03-01T06:51:39.479Z,5.08
2019-03-01T06:54:15.472Z,5.30
2019-03-01T06:56:47.568Z,4.95
2019-03-01T06:59:18.332Z,5.37
2019-03-01T07:01:52.045Z,4.58
2019-03-01T07:04:24.067Z,4.50
2019-03-01T07:06:57.225Z,3.92
2019-03-01T07:09:32.339Z,4.10
2019-03-01T07:12:04.722Z,4.47
2019-03-01T07:14:42.035Z,3.40
2019-03-01T07:17:17.616Z,4.28
2019-03-01T07:19:50.812Z,3.87
2019-03-01T07:22:24.782Z,4.35
2019-03-01T07:24:55.752Z,4.70
2019-03-01T07:27:29.694Z,4.10
2019-03-01T07:29:58.952Z,4.30
2019-03-01T07:32:36.770Z,4.60
2019-03-01T07:35:10.066Z,4.83
2019-03-01T07:37:42.087Z,4.22
2019-03-01T07:40:14.892Z,4.85
2019-03-01T07:42:48.264Z,5.28
2019-03-01T07:45:24.300Z,5.92
2019-03-01T07:47:56.123Z,4.70
2019-03-01T07:50:28.151Z,4.87
2019-03-01T07:53:00.288Z,4.92
2019-03-01T07:55:30.621Z,5.25
2019-03-01T07:58:06.938Z,4.83
2019-03-01T08:00:38.952Z,5.30
2019-03-01T08:03:11.922Z,5.97
2019-03-01T08:05:45.497Z,6.28
2019-03-01T08:08:15.212Z,4.87
2019-03-01T08:10:47.916Z,5.37
2019-03-01T08:13:17.580Z,6.10
2019-03-01T08:15:49.471Z,5.50
2019-03-01T08:18:24.552Z,5.17
2019-03-01T08:20:57.211Z,5.37
2019-03-01T08:23:31.784Z,4.75
2019-03-01T08:26:03.375Z,5.22
2019-03-01T08:28:34.398Z,4.95
2019-03-01T08:31:04.617Z,4.47
2019-03-01T08:33:34.012Z,4.97
2019-03-01T08:36:08.512Z,4.90
2019-03-01T08:38:41.919Z,5.30
2019-03-01T08:41:13.034Z,4.62
2019-03-01T08:43:48.178Z,5.70
2019-03-01T08:46:21.215Z,5.05
2019-03-01T08:48:55.616Z,4.47
2019-03-01T08:51:26.736Z,4.97
2019-03-01T08:53:59.253Z,6.12
2019-03-01T08:56:35.654Z,5.03
2019-03-01T08:59:10.236Z,4.95
2019-03-01T09:01:41.690Z,5.22
2019-03-01T09:04:21.420Z,5.20
2019-03-01T09:06:50.867Z,5.83
2019-03-01T09:09:21.957Z,6.65
2019-03-01T09:11:57.344Z,5.33
2019-03-01T09:14:32.755Z,6.72
2019-03-01T09:19:57.161Z,6.78
2019-03-01T09:22:28.836Z,6.75
2019-03-01T09:25:07.453Z,7.80
2019-03-01T09:27:40.572Z,7.37
2019-03-01T09:30:21.392Z,7.35
2019-03-01T09:32:54.017Z,7.35
2019-03-01T09:35:44.405Z,6.40
2019-03-01T09:38:18.251Z,6.45
2019-03-01T09:40:52.082Z,7.30
2019-03-01T09:43:27.875Z,7.55
2019-03-01T09:45:56.928Z,7.15
2019-03-01T09:48:31.676Z,7.00
2019-03-01T09:51:10.247Z,6.00
2019-03-01T09:53:40.870Z,5.72
2019-03-01T09:56:13.744Z,5.87
2019-03-01T09:58:48.081Z,6.05
2019-03-01T10:01:32.325Z,6.35
2019-03-01T10:04:04.663Z,8.53
2019-03-01T10:06:38.041Z,6.58
2019-03-01T10:09:12.608Z,5.97
2019-03-01T10:11:46.760Z,5.80
2019-03-01T10:14:15.920Z,5.75
2019-03-01T10:16:48.478Z,7.70
2019-03-01T10:19:21.080Z,6.55
2019-03-01T10:21:52.641Z,6.28
2019-03-01T10:24:22.419Z,6.60
2019-03-01T10:26:59.591Z,7.10
2019-03-01T10:29:32.574Z,6.83
2019-03-01T10:32:02.401Z,6.40
2019-03-01T10:34:33.564Z,8.03
2019-03-01T10:37:04.601Z,7.67
2019-03-01T10:39:40.154Z,8.95
2019-03-01T10:42:11.059Z,9.03
2019-03-01T10:44:44.284Z,8.48
2019-03-01T10:47:16.369Z,9.40
2019-03-01T10:49:50.267Z,7.53
2019-03-01T10:52:21.800Z,8.63
2019-03-01T10:54:55.489Z,7.20
2019-03-01T10:57:32.848Z,7.65
2019-03-01T11:02:53.197Z,8.20
2019-03-01T11:05:37.883Z,7.95
2019-03-01T11:08:10.873Z,7.30
2019-03-01T11:10:43.716Z,6.87
2019-03-01T11:13:19.534Z,7.33
2019-03-01T11:15:51.519Z,7.30
2019-03-01T11:18:25.047Z,7.85
2019-03-01T11:20:57.630Z,6.90
2019-03-01T11:23:28.064Z,7.35
2019-03-01T11:25:57.090Z,8.23
2019-03-01T11:28:28.775Z,6.87
2019-03-01T11:31:03.886Z,7.58
2019-03-01T11:33:34.756Z,7.17
2019-03-01T11:36:09.716Z,7.47
2019-03-01T11:38:41.331Z,8.28
2019-03-01T11:41:13.999Z,8.80
2019-03-01T11:43:43.593Z,9.43
2019-03-01T11:46:17.793Z,8.80
2019-03-01T11:48:53.553Z,7.62
2019-03-01T11:51:28.503Z,8.63
2019-03-01T11:54:04.263Z,8.50
2019-03-01T11:56:44.974Z,7.75
2019-03-01T11:59:22.233Z,7.75
2019-03-01T12:01:55.987Z,7.08
2019-03-01T12:07:26.579Z,5.65
2019-03-01T12:10:03.283Z,5.75
2019-03-01T12:12:31.973Z,5.03
2019-03-01T12:15:02.791Z,5.10
2019-03-01T12:17:32.887Z,4.70
2019-03-01T12:20:05.528Z,5.90
2019-03-01T12:22:34.602Z,5.90
2019-03-01T12:25:06.281Z,7.83
2019-03-01T12:27:37.480Z,10.13
2019-03-01T12:30:12.487Z,10.20
2019-03-01T12:32:44.180Z,9.38
2019-03-01T12:35:19.419Z,7.92
2019-03-01T12:37:52.047Z,5.95
2019-03-01T12:40:33.311Z,5.90
2019-03-01T12:43:17.419Z,6.40
2019-03-01T12:45:49.490Z,6.00
2019-03-01T12:48:25.198Z,5.33
2019-03-01T12:51:16.500Z,5.28
2019-03-01T12:53:57.492Z,5.80
2019-03-01T12:56:28.343Z,5.45
2019-03-01T12:59:09.767Z,5.37
2019-03-01T13:01:41.160Z,5.30
2019-03-01T13:04:11.142Z,5.35
2019-03-01T13:06:41.920Z,5.65
2019-03-01T13:12:04.392Z,5.30
2019-03-01T13:14:36.723Z,5.58
2019-03-01T13:17:09.205Z,5.85
2019-03-01T13:19:40.943Z,5.20
2019-03-01T13:22:16.427Z,5.28
2019-03-01T13:25:06.424Z,5.62
2019-03-01T13:27:38.269Z,6.67
2019-03-01T13:30:13.200Z,5.87
2019-03-01T13:32:45.486Z,5.85
2019-03-01T13:35:16.852Z,6.45
2019-03-01T13:37:55.539Z,5.45
2019-03-01T13:40:25.452Z,5.90
2019-03-01T13:42:55.639Z,5.78
2019-03-01T13:45:29.859Z,5.90
2019-03-01T13:48:03.219Z,6.25
2019-03-01T13:50:33.349Z,5.78
2019-03-01T13:53:14.889Z,6.15
2019-03-01T13:55:51.470Z,6.00
2019-03-01T13:58:26.763Z,6.00
2019-03-01T14:00:54.025Z,6.58
2019-03-01T14:03:27.785Z,7.47
2019-03-01T14:06:02.163Z,7.50
2019-03-01T14:08:34.071Z,6.17
2019-03-01T14:11:09.591Z,7.08
2019-03-01T14:13:47.577Z,6.20
2019-03-01T14:16:20.069Z,5.33
2019-03-01T14:18:53.544Z,5.45
2019-03-01T14:21:25.571Z,5.35
2019-03-01T14:23:57.040Z,5.10
2019-03-01T14:26:31.189Z,5.60
2019-03-01T14:29:06.131Z,5.62
2019-03-01T14:31:39.780Z,5.45
2019-03-01T14:34:15.054Z,5.80
2019-03-01T14:36:43.987Z,6.17
2019-03-01T14:39:21.750Z,5.08
2019-03-01T14:41:52.047Z,5.40
2019-03-01T14:44:21.630Z,5.58
2019-03-01T14:46:57.529Z,5.60
2019-03-01T14:49:35.638Z,5.35
2019-03-01T14:52:07.362Z,6.03
2019-03-01T14:54:38.457Z,5.80
2019-03-01T14:57:22.749Z,6.12
2019-03-01T15:00:02.913Z,6.55
2019-03-01T15:02:40.836Z,5.40
2019-03-01T15:05:17.765Z,6.15
2019-03-01T15:07:43.820Z,5.97
2019-03-01T15:10:15.612Z,5.70
2019-03-01T15:12:53.873Z,5.97
2019-03-01T15:15:26.450Z,5.78
2019-03-01T15:18:00.024Z,5.60
2019-03-01T15:20:31.691Z,6.03
2019-03-01T15:23:06.855Z,6.12
2019-03-01T15:25:47.553Z,6.65
2019-03-01T15:28:16.623Z,5.95
2019-03-01T15:30:50.247Z,6.80
2019-03-01T15:33:27.073Z,6.22
2019-03-01T15:36:01.736Z,6.72
2019-03-01T15:38:33.578Z,6.40
2019-03-01T15:41:06.588Z,5.97
2019-03-01T15:43:37.058Z,6.37
2019-03-01T15:46:11.545Z,6.85
2019-03-01T15:48:49.317Z,7.47
2019-03-01T15:51:19.609Z,7.30
2019-03-01T15:54:07.330Z,6.90
2019-03-01T15:56:25.129Z,6.78
2019-03-01T15:59:00.325Z,7.37
2019-03-01T16:01:34.494Z,8.28
2019-03-01T16:04:08.833Z,7.62
2019-03-01T16:06:38.139Z,5.50
2019-03-01T16:09:14.047Z,6.15
2019-03-01T16:11:48.245Z,6.22
2019-03-01T16:14:20.939Z,6.45
2019-03-01T16:16:53.706Z,5.67
2019-03-01T16:19:25.179Z,6.80
2019-03-01T16:21:57.201Z,6.85
2019-03-01T16:24:29.485Z,6.60
2019-03-01T16:27:03.708Z,7.47
2019-03-01T16:29:35.404Z,6.85
2019-03-01T16:32:09.115Z,6.25
2019-03-01T16:34:41.271Z,6.80
2019-03-01T16:37:10.104Z,6.50
2019-03-01T16:39:42.164Z,7.90
2019-03-01T16:42:22.977Z,7.05
2019-03-01T16:44:54.572Z,6.33
2019-03-01T16:47:25.222Z,6.20
2019-03-01T16:50:02.658Z,7.67
2019-03-01T16:52:43.091Z,6.22
2019-03-01T16:55:19.725Z,7.05
2019-03-01T16:58:05.974Z,7.45
2019-03-01T17:00:26.477Z,5.90
2019-03-01T17:03:09.157Z,5.95
2019-03-01T17:05:40.607Z,6.45
2019-03-01T17:08:12.265Z,5.50
2019-03-01T17:10:43.371Z,6.65
2019-03-01T17:13:15.700Z,5.58
2019-03-01T17:15:51.521Z,6.78
2019-03-01T17:18:25.257Z,5.97
2019-03-01T17:20:57.696Z,5.87
2019-03-01T17:23:32.510Z,6.30
2019-03-01T17:26:03.731Z,5.80
2019-03-01T17:28:38.396Z,5.80
2019-03-01T17:31:10.777Z,6.03
2019-03-01T17:33:45.242Z,6.40
2019-03-01T17:36:18.051Z,5.90
2019-03-01T17:38:57.496Z,6.23
2019-03-01T17:41:30.928Z,5.20
2019-03-01T17:44:04.878Z,5.78
2019-03-01T17:46:36.601Z,7.00
2019-03-01T17:49:07.514Z,6.22
2019-03-01T17:51:42.419Z,5.55
2019-03-01T17:54:19.047Z,5.97
2019-03-01T17:56:53.959Z,6.53
2019-03-01T17:59:25.683Z,6.40
2019-03-01T18:01:56.380Z,6.30
2019-03-01T18:04:29.337Z,9.70
2019-03-01T18:06:59.430Z,7.90
2019-03-01T18:09:32.086Z,5.90
2019-03-01T18:12:03.441Z,6.80
2019-03-01T18:14:42.751Z,6.00
2019-03-01T18:17:14.251Z,6.37
2019-03-01T18:19:46.508Z,5.80
2019-03-01T18:22:22.972Z,6.23
2019-03-01T18:24:54.703Z,6.83
2019-03-01T18:27:29.127Z,5.80
2019-03-01T18:30:01.925Z,5.50
2019-03-01T18:32:31.893Z,6.33
2019-03-01T18:35:08.006Z,5.70
2019-03-01T18:37:43.958Z,5.93
2019-03-01T18:40:16.830Z,5.30
2019-03-01T18:42:48.680Z,5.37
2019-03-01T18:45:26.969Z,5.17
2019-03-01T18:48:05.078Z,5.87
2019-03-01T18:50:39.354Z,5.07
2019-03-01T18:53:10.899Z,5.27
2019-03-01T18:55:42.352Z,4.67
2019-03-01T18:58:15.384Z,5.00
2019-03-01T19:00:53.237Z,5.50
2019-03-01T19:03:24.117Z,4.63
2019-03-01T19:05:55.845Z,4.97
2019-03-01T19:08:27.675Z,5.63
2019-03-01T19:10:59.682Z,5.10
2019-03-01T19:13:29.843Z,5.57
2019-03-01T19:16:11.343Z,5.30
2019-03-01T19:18:48.313Z,5.07
2019-03-01T19:21:19.784Z,5.57
2019-03-01T19:23:55.417Z,4.97
2019-03-01T19:26:28.811Z,5.20
2019-03-01T19:29:02.687Z,5.53
2019-03-01T19:31:38.543Z,5.60
2019-03-01T19:34:16.856Z,5.57
2019-03-01T19:36:47.021Z,5.47
2019-03-01T19:39:20.625Z,5.33
2019-03-01T19:41:54.644Z,4.83
2019-03-01T19:44:32.076Z,4.50
2019-03-01T19:47:11.132Z,5.23
2019-03-01T19:49:40.469Z,5.40
2019-03-01T19:52:15.728Z,5.27
2019-03-01T19:54:48.327Z,4.87
2019-03-01T19:57:20.890Z,4.47
2019-03-01T19:59:53.109Z,4.70
2019-03-01T20:02:27.817Z,5.40
2019-03-01T20:04:56.775Z,5.30
2019-03-01T20:07:27.565Z,4.70
2019-03-01T20:09:57.447Z,5.53
2019-03-01T20:15:20.837Z,5.00
2019-03-01T20:17:53.311Z,5.53
2019-03-01T20:20:29.831Z,5.33
2019-03-01T20:23:04.843Z,6.03
2019-03-01T20:25:34.553Z,5.30
2019-03-01T20:28:06.067Z,5.67
2019-03-01T20:30:40.708Z,5.20
2019-03-01T20:33:15.462Z,5.40
2019-03-01T20:35:50.830Z,5.20
2019-03-01T20:38:23.313Z,5.30
2019-03-01T20:40:59.856Z,4.92
2019-03-01T20:43:31.841Z,4.78
2019-03-01T20:46:03.865Z,4.83
2019-03-01T20:48:35.587Z,4.70
2019-03-01T20:51:06.227Z,4.70
2019-03-01T20:53:45.756Z,5.25
2019-03-01T20:56:16.946Z,5.35
2019-03-01T20:58:48.267Z,4.87
2019-03-01T21:01:20.243Z,5.60
2019-03-01T21:03:53.803Z,4.40
2019-03-01T21:06:27.931Z,5.10
2019-03-01T21:09:07.076Z,5.45
2019-03-01T21:11:37.870Z,5.15
2019-03-01T21:14:11.297Z,5.17
2019-03-01T21:19:33.063Z,4.75
2019-03-01T21:22:05.640Z,5.60
2019-03-01T21:24:36.784Z,5.00
2019-03-01T21:27:10.346Z,4.37
2019-03-01T21:29:53.344Z,4.90
2019-03-01T21:32:24.858Z,4.72
2019-03-01T21:34:53.924Z,4.12
2019-03-01T21:37:25.067Z,4.42
2019-03-01T21:40:00.405Z,4.58
2019-03-01T21:42:33.915Z,4.47
2019-03-01T21:45:06.436Z,4.80
2019-03-01T21:47:39.881Z,3.72
2019-03-01T21:50:10.106Z,4.25
2019-03-01T21:52:45.564Z,4.42
2019-03-01T21:55:28.556Z,4.30
2019-03-01T21:58:03.440Z,4.15
2019-03-01T22:00:39.918Z,3.90
2019-03-01T22:03:12.017Z,4.37
2019-03-01T22:05:45.278Z,4.50
2019-03-01T22:08:19.624Z,3.42
2019-03-01T22:10:48.544Z,3.95
2019-03-01T22:13:26.028Z,4.00
2019-03-01T22:16:00.979Z,4.00
2019-03-01T22:18:33.965Z,4.83
2019-03-01T22:21:05.217Z,3.47
2019-03-01T22:23:39.287Z,4.37
2019-03-01T22:26:16.021Z,3.95
2019-03-01T22:28:48.483Z,3.85
2019-03-01T22:31:23.534Z,3.85
2019-03-01T22:33:56.742Z,3.65
2019-03-01T22:36:32.319Z,3.50
2019-03-01T22:39:04.248Z,3.50
2019-03-01T22:41:39.222Z,3.37
2019-03-01T22:44:06.459Z,3.55
2019-03-01T22:46:40.450Z,3.25
2019-03-01T22:49:13.948Z,3.00
2019-03-01T22:51:45.216Z,3.30
2019-03-01T22:54:17.822Z,3.00
2019-03-01T22:56:50.646Z,3.40
2019-03-01T22:59:19.773Z,3.13
2019-03-01T23:01:55.726Z,2.60
2019-03-01T23:04:35.147Z,2.53
2019-03-01T23:07:07.869Z,2.97
2019-03-01T23:09:46.591Z,3.33
2019-03-01T23:12:19.499Z,2.77
2019-03-01T23:14:48.656Z,3.20
2019-03-01T23:17:21.685Z,3.10
2019-03-01T23:19:55.845Z,3.50
2019-03-01T23:22:29.542Z,2.50
2019-03-01T23:25:11.634Z,2.90
2019-03-01T23:27:42.083Z,3.47
2019-03-01T23:30:17.344Z,3.47
2019-03-01T23:32:55.820Z,3.77
2019-03-01T23:38:19.308Z,3.37
2019-03-01T23:40:53.432Z,3.35
2019-03-01T23:43:24.238Z,3.47
2019-03-01T23:45:58.154Z,3.30
2019-03-01T23:48:30.142Z,3.10
2019-03-01T23:51:03.001Z,2.80
2019-03-01T23:53:37.355Z,3.20
2019-03-01T23:56:13.927Z,3.03
2019-03-01T23:58:43.350Z,3.00
